createdAt,value
2022-10-06T00:02:14.602Z,14.9
2022-10-06T00:07:19.124Z,14.9
2022-10-06T00:12:22.642Z,14.7
2022-10-06T00:17:27.198Z,14.6
2022-10-06T00:22:31.718Z,14.5
2022-10-06T00:27:36.283Z,13.9
2022-10-06T00:32:39.776Z,13.5
2022-10-06T00:37:44.438Z,13.3
2022-10-06T00:42:48.836Z,13.2
2022-10-06T00:47:52.419Z,13.2
2022-10-06T00:52:57.003Z,13.2
2022-10-06T00:58:01.458Z,13.2
2022-10-06T01:03:05.110Z,13.3
2022-10-06T01:08:09.615Z,13.3
2022-10-06T01:13:14.138Z,13.3
2022-10-06T01:18:17.663Z,13.3
2022-10-06T01:23:22.202Z,13.4
2022-10-06T01:28:27.526Z,13.4
2022-10-06T01:33:31.265Z,13.4
2022-10-06T01:38:34.915Z,13.4
2022-10-06T01:43:39.537Z,13.5
2022-10-06T01:48:43.883Z,13.5
2022-10-06T01:53:47.497Z,13.5
2022-10-06T01:58:51.996Z,13.6
2022-10-06T02:03:56.508Z,13.6
2022-10-06T02:09:00.064Z,13.6
2022-10-06T02:14:04.584Z,13.5
2022-10-06T02:19:09.095Z,13.5
2022-10-06T02:24:12.685Z,13.4
2022-10-06T02:29:17.196Z,13.4
2022-10-06T02:34:21.785Z,13.4
2022-10-06T02:39:26.300Z,13.3
2022-10-06T02:44:29.810Z,13.3
2022-10-06T02:49:34.372Z,13.2
2022-10-06T02:54:38.894Z,13.1
2022-10-06T02:59:42.443Z,13
2022-10-06T03:04:46.940Z,12.9
2022-10-06T03:09:51.524Z,12.8
2022-10-06T03:14:55.086Z,12.7
2022-10-06T03:19:59.578Z,12.6
2022-10-06T03:25:04.164Z,12.5
2022-10-06T03:30:07.685Z,12.4
2022-10-06T03:35:12.227Z,12.4
2022-10-06T03:40:16.761Z,12.3
2022-10-06T03:45:21.268Z,12.3
2022-10-06T03:50:24.837Z,12.3
2022-10-06T03:55:29.405Z,12.1
2022-10-06T04:00:33.912Z,12
2022-10-06T04:05:37.609Z,11.9
2022-10-06T04:10:41.007Z,11.9
2022-10-06T04:15:45.548Z,12.1
2022-10-06T04:20:50.056Z,12.1
2022-10-06T04:25:56.062Z,11.9
2022-10-06T04:30:58.146Z,11.9
2022-10-06T04:36:02.681Z,11.8
2022-10-06T04:41:07.261Z,11.6
2022-10-06T04:46:37.605Z,11.6
2022-10-06T04:51:15.285Z,11.6
2022-10-06T04:56:19.874Z,11.6
2022-10-06T05:01:23.507Z,11.6
2022-10-06T05:06:27.965Z,11.5
2022-10-06T05:11:32.494Z,11.5
2022-10-06T05:16:36.056Z,11.4
2022-10-06T05:21:40.513Z,11.4
2022-10-06T05:26:45.126Z,11.4
2022-10-06T05:31:49.683Z,11.2
2022-10-06T05:36:53.200Z,11.1
2022-10-06T05:41:57.720Z,11.1
2022-10-06T05:47:02.245Z,11
2022-10-06T05:52:05.770Z,11
2022-10-06T05:57:10.327Z,11
2022-10-06T06:02:15.047Z,11.1
2022-10-06T06:07:18.386Z,11.1
2022-10-06T06:12:23.054Z,11.1
2022-10-06T06:17:27.451Z,11.2
2022-10-06T06:22:31.084Z,11.3
2022-10-06T06:27:35.610Z,11.3
2022-10-06T06:32:40.060Z,11.3
2022-10-06T06:37:44.625Z,11.6
2022-10-06T06:42:52.943Z,11.8
2022-10-06T06:47:52.719Z,12
2022-10-06T06:52:57.229Z,12.1
2022-10-06T06:58:00.783Z,12
2022-10-06T07:03:05.298Z,12.3
2022-10-06T07:08:09.853Z,12
2022-10-06T07:13:13.412Z,11.8
2022-10-06T07:18:17.912Z,11.8
2022-10-06T07:23:22.513Z,11.9
2022-10-06T07:28:26.051Z,11.9
2022-10-06T07:33:30.543Z,12.2
2022-10-06T07:38:35.103Z,12.5
2022-10-06T07:43:39.633Z,12.7
2022-10-06T07:48:43.165Z,12.6
2022-10-06T07:53:47.701Z,12.7
2022-10-06T07:58:52.248Z,13.3
2022-10-06T08:03:55.753Z,13.5
2022-10-06T08:09:00.591Z,13.5
2022-10-06T08:14:04.892Z,13.5
2022-10-06T08:19:08.374Z,13.7
2022-10-06T08:24:12.941Z,14.2
2022-10-06T08:29:16.542Z,14.9
2022-10-06T08:34:21.044Z,13.8
2022-10-06T08:39:25.601Z,14.4
2022-10-06T08:44:29.259Z,15.1
2022-10-06T08:49:33.636Z,15.2
2022-10-06T08:54:38.179Z,14.7
2022-10-06T08:59:41.749Z,17
2022-10-06T09:04:46.253Z,15.3
2022-10-06T09:09:50.795Z,15.2
2022-10-06T09:14:54.385Z,15.1
2022-10-06T09:56:44.822Z,16.3
2022-10-06T10:01:49.369Z,16.3
2022-10-06T10:06:52.878Z,15.6
2022-10-06T10:11:57.455Z,16.1
2022-10-06T10:17:01.969Z,16.4
2022-10-06T10:22:05.515Z,16.8
2022-10-06T10:27:10.067Z,19.6
2022-10-06T10:32:14.578Z,19.3
2022-10-06T10:37:18.133Z,20
2022-10-06T10:42:22.689Z,19.1
2022-10-06T10:47:27.215Z,18
2022-10-06T10:52:31.732Z,17.3
2022-10-06T10:57:35.373Z,19.5
2022-10-06T11:02:39.824Z,18.7
2022-10-06T11:07:44.390Z,17.1
2022-10-06T11:12:48.000Z,17.5
2022-10-06T11:17:52.433Z,18.5
2022-10-06T11:22:56.990Z,16.8
2022-10-06T11:28:00.733Z,19.9
2022-10-06T11:33:05.090Z,20.3
2022-10-06T11:38:09.614Z,21
2022-10-06T11:43:13.202Z,18.6
2022-10-06T11:48:17.754Z,19.1
2022-10-06T11:53:22.257Z,18.2
2022-10-06T11:58:42.881Z,17.9
2022-10-06T12:03:30.334Z,18.3
2022-10-06T12:08:34.924Z,18.6
2022-10-06T12:14:44.173Z,21.1
2022-10-06T12:18:42.998Z,21.9
2022-10-06T12:23:47.501Z,19.6
2022-10-06T12:28:52.089Z,18.8
2022-10-06T12:33:55.621Z,18.9
2022-10-06T12:39:00.139Z,19.3
2022-10-06T12:44:03.722Z,18.8
2022-10-06T12:49:08.277Z,17.6
2022-10-06T12:54:12.768Z,19.5
2022-10-06T12:59:16.396Z,18.4
2022-10-06T13:04:20.890Z,21.2
2022-10-06T13:09:25.422Z,21
2022-10-06T13:14:28.997Z,19.6
2022-10-06T13:19:33.495Z,18.9
2022-10-06T13:24:38.021Z,19.1
2022-10-06T13:29:41.672Z,19
2022-10-06T13:34:46.128Z,19.6
2022-10-06T13:39:50.644Z,20.1
2022-10-06T13:44:55.249Z,22.3
2022-10-06T13:49:59.143Z,21.4
2022-10-06T13:55:03.606Z,21
2022-10-06T14:00:07.847Z,20.7
2022-10-06T14:05:11.374Z,21.1
2022-10-06T14:10:15.956Z,20.4
2022-10-06T14:15:20.472Z,21.1
2022-10-06T14:20:23.983Z,21.1
2022-10-06T14:25:28.554Z,20.5
2022-10-06T14:30:33.117Z,21.1
2022-10-06T14:35:36.774Z,22.6
2022-10-06T14:40:41.166Z,22.4
2022-10-06T14:45:45.739Z,20.9
2022-10-06T14:50:50.205Z,21.5
2022-10-06T14:55:53.788Z,21.3
2022-10-06T15:00:58.345Z,21.1
2022-10-06T15:06:02.858Z,22
2022-10-06T15:11:06.395Z,21.3
2022-10-06T15:16:11.039Z,22.5
2022-10-06T15:21:15.483Z,18.5
2022-10-06T15:26:19.027Z,20.3
2022-10-06T15:31:23.668Z,21.6
2022-10-06T15:36:28.086Z,21
2022-10-06T15:41:31.770Z,21.1
2022-10-06T15:46:36.425Z,22.3
2022-10-06T15:51:40.738Z,21.6
2022-10-06T15:56:45.304Z,21.2
2022-10-06T16:01:49.094Z,21.5
2022-10-06T16:06:53.333Z,21.3
2022-10-06T16:11:57.905Z,21.2
2022-10-06T16:17:01.462Z,21.3
2022-10-06T16:22:05.952Z,20.7
2022-10-06T16:27:10.487Z,20.7
2022-10-06T16:32:14.131Z,20.6
2022-10-06T16:37:18.592Z,20.5
2022-10-06T16:42:23.113Z,19.5
2022-10-06T16:47:26.703Z,18.6
2022-10-06T16:52:31.197Z,17.8
2022-10-06T16:57:34.729Z,17.3
2022-10-06T17:02:39.776Z,16.7
2022-10-06T17:07:43.823Z,16.3
2022-10-06T17:12:47.379Z,15.8
2022-10-06T17:17:51.949Z,15.5
2022-10-06T17:22:56.423Z,15.2
2022-10-06T17:28:00.999Z,14.9
2022-10-06T17:33:04.658Z,14.7
2022-10-06T17:38:09.055Z,14.6
2022-10-06T17:43:13.579Z,14.3
2022-10-06T17:48:17.184Z,14
2022-10-06T17:53:21.644Z,13.9
2022-10-06T17:58:26.197Z,13.8
2022-10-06T18:03:29.799Z,13.6
2022-10-06T18:08:34.300Z,13.4
2022-10-06T18:13:38.850Z,13.3
2022-10-06T18:18:42.372Z,13
2022-10-06T18:23:46.912Z,12.7
2022-10-06T18:28:51.432Z,12.7
2022-10-06T18:38:59.552Z,12.5
2022-10-06T18:44:04.070Z,12.6
2022-10-06T18:49:08.599Z,12.4
2022-10-06T18:54:12.188Z,12.5
2022-10-06T18:59:16.659Z,12.6
2022-10-06T19:04:21.209Z,12.8
2022-10-06T19:09:24.764Z,12.9
2022-10-06T19:14:29.276Z,12.7
2022-10-06T19:19:33.830Z,12.7
2022-10-06T19:24:37.370Z,12.7
2022-10-06T19:29:41.916Z,12.6
2022-10-06T19:34:46.636Z,12.6
2022-10-06T19:39:50.988Z,12.4
2022-10-06T19:44:54.516Z,12.2
2022-10-06T19:50:03.727Z,12
2022-10-06T19:55:03.617Z,11.9
2022-10-06T20:00:07.158Z,12
2022-10-06T20:05:11.717Z,12
2022-10-06T20:10:16.241Z,12
2022-10-06T20:15:19.746Z,11.6
2022-10-06T20:20:24.313Z,11.6
2022-10-06T20:25:28.862Z,11.7
2022-10-06T20:30:32.497Z,11.4
2022-10-06T20:35:36.937Z,11
2022-10-06T20:40:41.434Z,10.4
2022-10-06T20:45:46.068Z,10.5
2022-10-06T20:50:49.545Z,10.7
2022-10-06T20:55:54.097Z,10.8
2022-10-06T21:00:58.642Z,10.7
2022-10-06T21:06:02.218Z,10.6
2022-10-06T21:11:05.754Z,10.7
2022-10-06T21:16:10.316Z,10.7
2022-10-06T21:21:14.827Z,10.5
2022-10-06T21:26:19.355Z,10.3
2022-10-06T21:31:22.980Z,10.3
2022-10-06T21:36:27.417Z,10.4
2022-10-06T21:41:32.071Z,10.3
2022-10-06T21:46:35.658Z,10.4
2022-10-06T21:51:40.056Z,10.1
2022-10-06T21:56:44.583Z,10
2022-10-06T22:01:48.174Z,10.3
2022-10-06T22:06:52.675Z,10.2
2022-10-06T22:11:57.290Z,10.1
2022-10-06T22:17:00.716Z,9.9
2022-10-06T22:22:05.309Z,9.8
2022-10-06T22:27:09.811Z,9.3
2022-10-06T22:32:14.325Z,8.6
2022-10-06T22:37:17.912Z,9.1
2022-10-06T22:42:22.428Z,9.1
2022-10-06T22:47:26.973Z,8.8
2022-10-06T22:52:30.521Z,8.4
2022-10-06T22:57:35.030Z,8.3
2022-10-06T23:02:39.581Z,8.2
2022-10-06T23:07:43.538Z,7.9
2022-10-06T23:12:47.662Z,7.9
2022-10-06T23:17:52.197Z,8
2022-10-06T23:22:55.781Z,7.9
2022-10-06T23:28:00.404Z,7.7
2022-10-06T23:33:04.808Z,7.6
2022-10-06T23:38:10.738Z,7.6
2022-10-06T23:43:12.915Z,7.6
2022-10-06T23:48:17.432Z,7.9
2022-10-06T23:53:22.005Z,8.1
2022-10-06T23:58:25.537Z,8.3
